Atwater, Minnesota
Current Conditions -  °F | °C
As of 7:32 PM on Friday 24 Oct 2014 (Local Time) from KLJF Reporting Station
Clear Clear  
Wind Chill: 17°   Ceiling: Unl
Heat Index: 17°   Visibility: 10mi
Dew Point:   Wind: 5mph
Humidity: 52%   Direction: 230°SW
Pressure: 29.87"   Gusts: NA
Location:  45.14°N, 94.78°W
Report Text: KLJF 250032Z AUTO 23004KT 10SM CLR 17/07 A2987 RMK AO2
Loading
Personal Weather Stations






























Interactive Weather Map
Tropical Storm Tracking
New forecast layout! Learn more

10-Day Weather Forecast

Advertisements
Track Severe Weather on mobile